sensor_id;sensor_type;location;lat;lon;timestamp;pressure;altitude;pressure_sealevel;temperature;humidity
27425;BME280;15244;49.088;11.886;2023-06-14T00:01:35;95434.69;;;21.82;30.03
27425;BME280;15244;49.088;11.886;2023-06-14T00:06:43;95440.56;;;21.75;30.22
27425;BME280;15244;49.088;11.886;2023-06-14T00:11:46;95433.00;;;21.67;30.45
27425;BME280;15244;49.088;11.886;2023-06-14T00:16:55;95435.00;;;21.57;30.75
27425;BME280;15244;49.088;11.886;2023-06-14T00:22:06;95431.31;;;21.51;30.57
27425;BME280;15244;49.088;11.886;2023-06-14T00:27:09;95431.19;;;21.45;30.82
27425;BME280;15244;49.088;11.886;2023-06-14T00:32:11;95441.78;;;21.37;31.23
27425;BME280;15244;49.088;11.886;2023-06-14T00:37:13;95433.28;;;21.32;31.14
27425;BME280;15244;49.088;11.886;2023-06-14T00:42:27;95433.00;;;21.30;31.36
27425;BME280;15244;49.088;11.886;2023-06-14T00:47:35;95432.81;;;21.24;31.51
27425;BME280;15244;49.088;11.886;2023-06-14T00:52:39;95421.25;;;21.16;31.72
27425;BME280;15244;49.088;11.886;2023-06-14T00:57:46;95428.34;;;21.08;31.82
27425;BME280;15244;49.088;11.886;2023-06-14T01:02:51;95434.66;;;20.99;32.02
27425;BME280;15244;49.088;11.886;2023-06-14T01:08:11;95426.31;;;20.90;31.93
27425;BME280;15244;49.088;11.886;2023-06-14T01:13:25;95424.59;;;20.84;32.12
27425;BME280;15244;49.088;11.886;2023-06-14T01:18:34;95426.88;;;20.76;32.26
27425;BME280;15244;49.088;11.886;2023-06-14T01:23:36;95427.19;;;20.69;32.41
27425;BME280;15244;49.088;11.886;2023-06-14T01:28:45;95423.47;;;20.63;32.55
27425;BME280;15244;49.088;11.886;2023-06-14T01:33:55;95428.97;;;20.53;32.63
27425;BME280;15244;49.088;11.886;2023-06-14T01:39:02;95418.59;;;20.45;32.80
27425;BME280;15244;49.088;11.886;2023-06-14T01:44:12;95424.56;;;20.34;32.94
27425;BME280;15244;49.088;11.886;2023-06-14T01:49:20;95416.97;;;20.25;33.26
27425;BME280;15244;49.088;11.886;2023-06-14T01:54:21;95421.72;;;20.16;33.33
27425;BME280;15244;49.088;11.886;2023-06-14T01:59:33;95425.66;;;20.05;33.49
27425;BME280;15244;49.088;11.886;2023-06-14T02:04:36;95422.84;;;19.96;33.62
27425;BME280;15244;49.088;11.886;2023-06-14T02:09:41;95421.56;;;19.88;33.72
27425;BME280;15244;49.088;11.886;2023-06-14T02:14:48;95427.03;;;19.79;33.94
27425;BME280;15244;49.088;11.886;2023-06-14T02:19:51;95419.31;;;19.74;34.06
27425;BME280;15244;49.088;11.886;2023-06-14T02:24:56;95426.31;;;19.65;34.14
27425;BME280;15244;49.088;11.886;2023-06-14T02:30:10;95421.34;;;19.60;34.23
27425;BME280;15244;49.088;11.886;2023-06-14T02:35:14;95431.75;;;19.56;34.19
27425;BME280;15244;49.088;11.886;2023-06-14T02:40:20;95426.69;;;19.55;34.16
27425;BME280;15244;49.088;11.886;2023-06-14T02:45:25;95430.81;;;19.50;34.33
27425;BME280;15244;49.088;11.886;2023-06-14T02:50:28;95430.59;;;19.44;34.34
27425;BME280;15244;49.088;11.886;2023-06-14T02:55:32;95425.19;;;19.41;34.46
27425;BME280;15244;49.088;11.886;2023-06-14T03:00:36;95430.53;;;19.35;34.46
27425;BME280;15244;49.088;11.886;2023-06-14T03:05:43;95430.63;;;19.32;34.67
27425;BME280;15244;49.088;11.886;2023-06-14T03:10:53;95435.53;;;19.27;34.72
27425;BME280;15244;49.088;11.886;2023-06-14T03:15:58;95425.69;;;19.26;34.79
27425;BME280;15244;49.088;11.886;2023-06-14T03:21:04;95433.66;;;19.24;34.87
27425;BME280;15244;49.088;11.886;2023-06-14T03:26:15;95441.63;;;19.22;34.87
27425;BME280;15244;49.088;11.886;2023-06-14T03:31:29;95453.44;;;19.23;34.92
27425;BME280;15244;49.088;11.886;2023-06-14T03:36:38;95455.88;;;19.21;35.08
27425;BME280;15244;49.088;11.886;2023-06-14T03:41:45;95454.69;;;19.22;35.16
27425;BME280;15244;49.088;11.886;2023-06-14T03:46:49;95453.44;;;19.23;35.21
27425;BME280;15244;49.088;11.886;2023-06-14T03:51:55;95453.44;;;19.23;35.29
27425;BME280;15244;49.088;11.886;2023-06-14T03:57:05;95462.50;;;19.23;35.32
27425;BME280;15244;49.088;11.886;2023-06-14T04:02:13;95455.78;;;19.24;35.45
27425;BME280;15244;49.088;11.886;2023-06-14T04:07:21;95470.69;;;19.27;35.38
27425;BME280;15244;49.088;11.886;2023-06-14T04:12:26;95469.03;;;19.30;35.28
27425;BME280;15244;49.088;11.886;2023-06-14T04:17:30;95483.16;;;19.32;35.34
27425;BME280;15244;49.088;11.886;2023-06-14T04:22:39;95480.72;;;19.34;35.51
27425;BME280;15244;49.088;11.886;2023-06-14T04:27:56;95482.28;;;19.35;35.47
27425;BME280;15244;49.088;11.886;2023-06-14T04:33:01;95485.34;;;19.37;35.69
27425;BME280;15244;49.088;11.886;2023-06-14T04:38:09;95491.22;;;19.39;35.51
27425;BME280;15244;49.088;11.886;2023-06-14T04:43:15;95484.78;;;19.42;35.73
27425;BME280;15244;49.088;11.886;2023-06-14T04:48:24;95488.63;;;19.44;35.73
27425;BME280;15244;49.088;11.886;2023-06-14T04:53:31;95495.16;;;19.51;35.91
27425;BME280;15244;49.088;11.886;2023-06-14T04:58:37;95490.72;;;19.53;35.91
27425;BME280;15244;49.088;11.886;2023-06-14T05:03:44;95494.16;;;19.57;35.97
27425;BME280;15244;49.088;11.886;2023-06-14T05:08:56;95499.97;;;19.59;36.02
27425;BME280;15244;49.088;11.886;2023-06-14T05:14:05;95504.63;;;19.62;36.09
27425;BME280;15244;49.088;11.886;2023-06-14T05:19:11;95505.75;;;19.65;36.50
27425;BME280;15244;49.088;11.886;2023-06-14T05:24:21;95508.84;;;19.67;36.35
27425;BME280;15244;49.088;11.886;2023-06-14T05:29:26;95515.03;;;19.71;36.57
27425;BME280;15244;49.088;11.886;2023-06-14T05:34:35;95509.69;;;19.77;36.55
27425;BME280;15244;49.088;11.886;2023-06-14T05:39:48;95514.53;;;19.85;36.66
27425;BME280;15244;49.088;11.886;2023-06-14T05:44:52;95525.66;;;19.95;36.53
27425;BME280;15244;49.088;11.886;2023-06-14T05:49:59;95526.50;;;20.04;36.52
27425;BME280;15244;49.088;11.886;2023-06-14T05:55:07;95533.63;;;20.14;36.60
27425;BME280;15244;49.088;11.886;2023-06-14T06:00:14;95526.94;;;20.25;36.48
27425;BME280;15244;49.088;11.886;2023-06-14T06:05:17;95529.78;;;20.34;36.38
27425;BME280;15244;49.088;11.886;2023-06-14T06:10:28;95537.81;;;20.41;36.42
27425;BME280;15244;49.088;11.886;2023-06-14T06:15:30;95545.06;;;20.48;36.22
27425;BME280;15244;49.088;11.886;2023-06-14T06:20:39;95538.09;;;20.56;36.24
27425;BME280;15244;49.088;11.886;2023-06-14T06:25:40;95541.03;;;20.62;36.10
27425;BME280;15244;49.088;11.886;2023-06-14T06:30:47;95549.06;;;20.69;36.30
27425;BME280;15244;49.088;11.886;2023-06-14T06:35:48;95553.53;;;20.75;36.07
27425;BME280;15244;49.088;11.886;2023-06-14T06:40:50;95555.09;;;20.76;36.37
27425;BME280;15244;49.088;11.886;2023-06-14T06:46:00;95565.28;;;20.80;36.21
27425;BME280;15244;49.088;11.886;2023-06-14T06:51:05;95568.66;;;20.84;36.13
27425;BME280;15244;49.088;11.886;2023-06-14T06:56:16;95574.69;;;20.91;36.34
27425;BME280;15244;49.088;11.886;2023-06-14T07:01:23;95576.31;;;21.02;36.49
27425;BME280;15244;49.088;11.886;2023-06-14T07:06:33;95579.09;;;21.11;36.60
27425;BME280;15244;49.088;11.886;2023-06-14T07:11:37;95585.31;;;21.24;36.70
27425;BME280;15244;49.088;11.886;2023-06-14T07:16:40;95587.09;;;21.40;36.49
27425;BME280;15244;49.088;11.886;2023-06-14T07:21:45;95579.84;;;21.52;36.48
27425;BME280;15244;49.088;11.886;2023-06-14T07:26:46;95592.50;;;21.62;35.86
27425;BME280;15244;49.088;11.886;2023-06-14T07:31:51;95599.00;;;21.68;36.37
27425;BME280;15244;49.088;11.886;2023-06-14T07:36:55;95605.34;;;21.78;36.15
27425;BME280;15244;49.088;11.886;2023-06-14T07:42:04;95604.91;;;21.89;36.48
27425;BME280;15244;49.088;11.886;2023-06-14T07:47:09;95610.16;;;22.05;36.01
27425;BME280;15244;49.088;11.886;2023-06-14T07:52:21;95604.31;;;22.21;36.60
27425;BME280;15244;49.088;11.886;2023-06-14T07:57:27;95607.84;;;22.40;36.22
27425;BME280;15244;49.088;11.886;2023-06-14T08:02:38;95610.63;;;22.59;35.96
27425;BME280;15244;49.088;11.886;2023-06-14T08:07:40;95611.53;;;22.74;35.76
27425;BME280;15244;49.088;11.886;2023-06-14T08:12:42;95609.78;;;22.86;34.87
27425;BME280;15244;49.088;11.886;2023-06-14T08:17:48;95616.72;;;23.00;35.18
27425;BME280;15244;49.088;11.886;2023-06-14T08:22:49;95614.34;;;23.17;34.65
27425;BME280;15244;49.088;11.886;2023-06-14T08:28:00;95617.97;;;23.32;33.92
27425;BME280;15244;49.088;11.886;2023-06-14T08:33:04;95615.47;;;23.43;33.47
27425;BME280;15244;49.088;11.886;2023-06-14T08:38:19;95622.53;;;23.53;33.38
27425;BME280;15244;49.088;11.886;2023-06-14T08:43:29;95618.91;;;23.62;33.45
27425;BME280;15244;49.088;11.886;2023-06-14T08:48:32;95619.06;;;23.68;33.50
27425;BME280;15244;49.088;11.886;2023-06-14T08:53:35;95630.91;;;23.77;33.90
27425;BME280;15244;49.088;11.886;2023-06-14T08:58:46;95630.13;;;23.86;33.26
27425;BME280;15244;49.088;11.886;2023-06-14T09:03:52;95632.97;;;24.01;33.31
27425;BME280;15244;49.088;11.886;2023-06-14T09:08:56;95629.16;;;24.13;32.77
27425;BME280;15244;49.088;11.886;2023-06-14T09:14:03;95631.03;;;24.07;31.84
27425;BME280;15244;49.088;11.886;2023-06-14T09:19:09;95634.03;;;24.04;32.20
27425;BME280;15244;49.088;11.886;2023-06-14T09:24:23;95634.72;;;24.13;32.29
27425;BME280;15244;49.088;11.886;2023-06-14T09:29:27;95633.22;;;24.27;32.18
27425;BME280;15244;49.088;11.886;2023-06-14T09:34:29;95630.84;;;24.35;31.29
27425;BME280;15244;49.088;11.886;2023-06-14T09:39:31;95634.03;;;24.42;31.43
27425;BME280;15244;49.088;11.886;2023-06-14T09:44:37;95636.09;;;24.57;31.28
27425;BME280;15244;49.088;11.886;2023-06-14T09:49:52;95628.44;;;24.67;30.59
27425;BME280;15244;49.088;11.886;2023-06-14T09:55:12;95629.88;;;24.77;30.88
27425;BME280;15244;49.088;11.886;2023-06-14T10:00:21;95632.69;;;24.92;31.36
27425;BME280;15244;49.088;11.886;2023-06-14T10:05:27;95620.72;;;25.06;30.95
27425;BME280;15244;49.088;11.886;2023-06-14T10:10:34;95630.75;;;25.13;30.83
27425;BME280;15244;49.088;11.886;2023-06-14T10:26:02;95635.56;;;25.12;31.00
27425;BME280;15244;49.088;11.886;2023-06-14T10:31:06;95646.22;;;25.14;31.03
27425;BME280;15244;49.088;11.886;2023-06-14T10:36:25;95635.56;;;25.12;30.29
27425;BME280;15244;49.088;11.886;2023-06-14T10:41:52;95629.19;;;25.12;30.16
27425;BME280;15244;49.088;11.886;2023-06-14T10:47:00;95635.06;;;25.14;29.63
27425;BME280;15244;49.088;11.886;2023-06-14T10:52:05;95635.56;;;25.12;29.46
27425;BME280;15244;49.088;11.886;2023-06-14T10:57:13;95636.13;;;25.16;29.35
27425;BME280;15244;49.088;11.886;2023-06-14T11:13:06;95622.19;;;25.31;29.83
27425;BME280;15244;49.088;11.886;2023-06-14T11:18:13;95625.53;;;25.35;30.25
27425;BME280;15244;49.088;11.886;2023-06-14T11:23:27;95618.31;;;25.43;30.08
27425;BME280;15244;49.088;11.886;2023-06-14T11:28:38;95616.94;;;25.54;30.16
27425;BME280;15244;49.088;11.886;2023-06-14T11:33:40;95617.88;;;25.65;30.22
27425;BME280;15244;49.088;11.886;2023-06-14T11:38:45;95624.66;;;25.79;29.83
27425;BME280;15244;49.088;11.886;2023-06-14T11:44:01;95625.59;;;25.91;29.43
27425;BME280;15244;49.088;11.886;2023-06-14T11:49:04;95619.63;;;25.98;29.64
27425;BME280;15244;49.088;11.886;2023-06-14T11:54:11;95626.03;;;26.04;29.83
27425;BME280;15244;49.088;11.886;2023-06-14T11:59:20;95608.63;;;26.15;29.39
27425;BME280;15244;49.088;11.886;2023-06-14T12:04:28;95616.66;;;26.28;29.02
27425;BME280;15244;49.088;11.886;2023-06-14T12:09:32;95606.84;;;26.38;28.33
27425;BME280;15244;49.088;11.886;2023-06-14T12:14:34;95604.91;;;26.44;28.31
27425;BME280;15244;49.088;11.886;2023-06-14T12:19:45;95601.25;;;26.58;28.41
27425;BME280;15244;49.088;11.886;2023-06-14T12:24:54;95613.84;;;26.69;27.81
27425;BME280;15244;49.088;11.886;2023-06-14T12:30:02;95602.00;;;26.79;27.67
27425;BME280;15244;49.088;11.886;2023-06-14T12:35:06;95603.63;;;26.92;27.97
27425;BME280;15244;49.088;11.886;2023-06-14T12:40:16;95602.94;;;27.02;27.61
27425;BME280;15244;49.088;11.886;2023-06-14T12:45:22;95604.78;;;27.11;26.95
27425;BME280;15244;49.088;11.886;2023-06-14T12:50:28;95602.81;;;27.17;26.87
27425;BME280;15244;49.088;11.886;2023-06-14T12:55:34;95600.56;;;27.21;25.21
27425;BME280;15244;49.088;11.886;2023-06-14T13:00:43;95598.31;;;27.26;25.28
27425;BME280;15244;49.088;11.886;2023-06-14T13:06:00;95599.63;;;27.30;25.31
27425;BME280;15244;49.088;11.886;2023-06-14T13:11:09;95611.44;;;27.45;25.64
27425;BME280;15244;49.088;11.886;2023-06-14T13:16:15;95604.66;;;27.58;25.54
27425;BME280;15244;49.088;11.886;2023-06-14T13:21:21;95596.59;;;27.77;25.39
27425;BME280;15244;49.088;11.886;2023-06-14T13:26:27;95599.00;;;27.90;24.62
27425;BME280;15244;49.088;11.886;2023-06-14T13:31:33;95606.47;;;28.04;24.34
27425;BME280;15244;49.088;11.886;2023-06-14T13:36:39;95594.78;;;28.11;24.40
27425;BME280;15244;49.088;11.886;2023-06-14T13:41:42;95590.69;;;28.12;24.60
27425;BME280;15244;49.088;11.886;2023-06-14T13:46:45;95588.69;;;28.18;24.69
27425;BME280;15244;49.088;11.886;2023-06-14T13:51:53;95594.03;;;28.22;25.16
27425;BME280;15244;49.088;11.886;2023-06-14T13:56:54;95584.88;;;28.27;25.54
27425;BME280;15244;49.088;11.886;2023-06-14T14:01:56;95591.03;;;28.37;25.37
27425;BME280;15244;49.088;11.886;2023-06-14T14:07:00;95587.47;;;28.36;25.31
27425;BME280;15244;49.088;11.886;2023-06-14T14:12:03;95586.94;;;28.38;24.44
27425;BME280;15244;49.088;11.886;2023-06-14T14:17:05;95591.53;;;28.41;25.25
27425;BME280;15244;49.088;11.886;2023-06-14T14:22:13;95583.97;;;28.58;25.36
27425;BME280;15244;49.088;11.886;2023-06-14T14:27:16;95579.91;;;28.76;24.51
27425;BME280;15244;49.088;11.886;2023-06-14T14:32:24;95587.59;;;28.92;24.64
27425;BME280;15244;49.088;11.886;2023-06-14T14:37:33;95589.69;;;29.14;24.77
27425;BME280;15244;49.088;11.886;2023-06-14T14:42:37;95588.13;;;29.36;24.64
27425;BME280;15244;49.088;11.886;2023-06-14T14:47:48;95586.81;;;29.54;23.92
27425;BME280;15244;49.088;11.886;2023-06-14T14:52:53;95579.19;;;29.66;23.37
27425;BME280;15244;49.088;11.886;2023-06-14T14:58:10;95583.75;;;29.69;23.54
27425;BME280;15244;49.088;11.886;2023-06-14T15:03:11;95587.06;;;29.78;23.45
27425;BME280;15244;49.088;11.886;2023-06-14T15:08:15;95596.97;;;29.85;23.55
27425;BME280;15244;49.088;11.886;2023-06-14T15:13:22;95590.84;;;29.87;23.20
27425;BME280;15244;49.088;11.886;2023-06-14T15:18:24;95594.41;;;29.93;23.80
27425;BME280;15244;49.088;11.886;2023-06-14T15:23:35;95595.13;;;30.05;23.92
27425;BME280;15244;49.088;11.886;2023-06-14T15:28:37;95586.13;;;30.17;23.95
27425;BME280;15244;49.088;11.886;2023-06-14T15:33:43;95580.72;;;30.31;23.58
27425;BME280;15244;49.088;11.886;2023-06-14T15:38:45;95586.91;;;30.29;23.39
27425;BME280;15244;49.088;11.886;2023-06-14T15:43:52;95584.09;;;30.18;22.76
27425;BME280;15244;49.088;11.886;2023-06-14T15:48:57;95583.91;;;30.05;23.01
27425;BME280;15244;49.088;11.886;2023-06-14T15:54:01;95585.72;;;29.96;22.88
27425;BME280;15244;49.088;11.886;2023-06-14T15:59:04;95576.75;;;30.03;22.84
27425;BME280;15244;49.088;11.886;2023-06-14T16:04:16;95579.25;;;30.18;22.27
27425;BME280;15244;49.088;11.886;2023-06-14T16:09:17;95576.91;;;30.34;22.47
27425;BME280;15244;49.088;11.886;2023-06-14T16:14:33;95578.84;;;30.50;22.58
27425;BME280;15244;49.088;11.886;2023-06-14T16:19:42;95581.84;;;30.63;22.73
27425;BME280;15244;49.088;11.886;2023-06-14T16:24:44;95579.97;;;30.77;22.71
27425;BME280;15244;49.088;11.886;2023-06-14T16:29:48;95581.91;;;30.94;22.56
27425;BME280;15244;49.088;11.886;2023-06-14T16:34:56;95584.09;;;31.12;22.19
27425;BME280;15244;49.088;11.886;2023-06-14T16:40:03;95593.97;;;31.24;22.26
27425;BME280;15244;49.088;11.886;2023-06-14T16:45:06;95589.06;;;31.30;22.08
27425;BME280;15244;49.088;11.886;2023-06-14T16:50:10;95596.19;;;31.31;21.76
27425;BME280;15244;49.088;11.886;2023-06-14T16:55:15;95599.59;;;31.24;21.56
27425;BME280;15244;49.088;11.886;2023-06-14T17:00:20;95603.03;;;31.12;21.91
27425;BME280;15244;49.088;11.886;2023-06-14T17:05:34;95612.41;;;30.90;21.47
27425;BME280;15244;49.088;11.886;2023-06-14T17:10:38;95618.19;;;30.61;21.33
27425;BME280;15244;49.088;11.886;2023-06-14T17:15:39;95633.91;;;30.34;21.74
27425;BME280;15244;49.088;11.886;2023-06-14T17:20:45;95634.00;;;30.06;21.93
27425;BME280;15244;49.088;11.886;2023-06-14T17:25:55;95637.09;;;29.80;22.32
27425;BME280;15244;49.088;11.886;2023-06-14T17:30:57;95639.16;;;29.63;22.29
27425;BME280;15244;49.088;11.886;2023-06-14T17:36:02;95644.53;;;29.49;22.43
27425;BME280;15244;49.088;11.886;2023-06-14T17:41:04;95652.22;;;29.37;22.32
27425;BME280;15244;49.088;11.886;2023-06-14T17:46:10;95644.78;;;29.23;22.40
27425;BME280;15244;49.088;11.886;2023-06-14T17:51:14;95652.69;;;29.08;22.50
27425;BME280;15244;49.088;11.886;2023-06-14T17:56:16;95657.25;;;29.00;22.91
27425;BME280;15244;49.088;11.886;2023-06-14T18:01:23;95663.09;;;28.96;22.93
27425;BME280;15244;49.088;11.886;2023-06-14T18:06:28;95665.16;;;29.01;23.43
27425;BME280;15244;49.088;11.886;2023-06-14T18:11:29;95665.72;;;29.11;23.62
27425;BME280;15244;49.088;11.886;2023-06-14T18:16:36;95669.03;;;29.21;23.83
27425;BME280;15244;49.088;11.886;2023-06-14T18:21:47;95672.88;;;29.23;23.55
27425;BME280;15244;49.088;11.886;2023-06-14T18:26:51;95680.75;;;29.13;23.37
27425;BME280;15244;49.088;11.886;2023-06-14T18:32:02;95679.19;;;28.95;23.31
27425;BME280;15244;49.088;11.886;2023-06-14T18:37:05;95676.59;;;28.75;23.29
27425;BME280;15244;49.088;11.886;2023-06-14T18:42:25;95684.44;;;28.54;23.67
27425;BME280;15244;49.088;11.886;2023-06-14T18:47:32;95692.19;;;28.33;24.34
27425;BME280;15244;49.088;11.886;2023-06-14T18:52:36;95700.47;;;28.10;24.16
27425;BME280;15244;49.088;11.886;2023-06-14T18:57:54;95705.97;;;27.88;23.87
27425;BME280;15244;49.088;11.886;2023-06-14T19:03:12;95715.69;;;27.66;24.12
27425;BME280;15244;49.088;11.886;2023-06-14T19:08:17;95716.03;;;27.42;23.94
27425;BME280;15244;49.088;11.886;2023-06-14T19:13:20;95722.38;;;27.17;24.20
27425;BME280;15244;49.088;11.886;2023-06-14T19:18:23;95730.56;;;26.94;24.62
27425;BME280;15244;49.088;11.886;2023-06-14T19:23:27;95730.78;;;26.70;24.75
27425;BME280;15244;49.088;11.886;2023-06-14T19:28:34;95734.31;;;26.50;25.22
27425;BME280;15244;49.088;11.886;2023-06-14T19:33:45;95743.97;;;26.29;25.18
27425;BME280;15244;49.088;11.886;2023-06-14T19:38:48;95751.03;;;26.09;25.71
27425;BME280;15244;49.088;11.886;2023-06-14T19:43:54;95750.03;;;25.92;25.81
27425;BME280;15244;49.088;11.886;2023-06-14T19:48:57;95757.63;;;25.77;26.11
27425;BME280;15244;49.088;11.886;2023-06-14T19:54:25;95773.34;;;25.59;26.11
27425;BME280;15244;49.088;11.886;2023-06-14T19:59:33;95772.56;;;25.44;26.38
27425;BME280;15244;49.088;11.886;2023-06-14T20:04:46;95785.44;;;25.26;26.82
27425;BME280;15244;49.088;11.886;2023-06-14T20:09:59;95790.69;;;25.09;26.93
27425;BME280;15244;49.088;11.886;2023-06-14T20:15:06;95793.91;;;24.93;27.16
27425;BME280;15244;49.088;11.886;2023-06-14T20:20:12;95790.03;;;24.76;27.35
27425;BME280;15244;49.088;11.886;2023-06-14T20:25:24;95796.81;;;24.60;27.53
27425;BME280;15244;49.088;11.886;2023-06-14T20:30:26;95798.41;;;24.42;27.87
27425;BME280;15244;49.088;11.886;2023-06-14T20:35:29;95796.06;;;24.26;27.93
27425;BME280;15244;49.088;11.886;2023-06-14T20:40:31;95806.34;;;24.11;28.10
27425;BME280;15244;49.088;11.886;2023-06-14T20:45:34;95800.69;;;23.96;28.38
27425;BME280;15244;49.088;11.886;2023-06-14T20:50:45;95801.34;;;23.82;28.68
27425;BME280;15244;49.088;11.886;2023-06-14T20:55:50;95802.28;;;23.69;28.55
27425;BME280;15244;49.088;11.886;2023-06-14T21:00:52;95805.25;;;23.56;28.68
27425;BME280;15244;49.088;11.886;2023-06-14T21:05:55;95808.69;;;23.42;29.10
27425;BME280;15244;49.088;11.886;2023-06-14T21:11:00;95802.50;;;23.29;29.28
27425;BME280;15244;49.088;11.886;2023-06-14T21:16:06;95796.03;;;23.13;29.11
27425;BME280;15244;49.088;11.886;2023-06-14T21:21:10;95801.31;;;23.02;29.37
27425;BME280;15244;49.088;11.886;2023-06-14T21:26:13;95793.88;;;22.90;29.45
27425;BME280;15244;49.088;11.886;2023-06-14T21:31:17;95796.63;;;22.81;29.63
27425;BME280;15244;49.088;11.886;2023-06-14T21:36:19;95793.38;;;22.73;29.65
27425;BME280;15244;49.088;11.886;2023-06-14T21:41:21;95797.53;;;22.68;29.54
27425;BME280;15244;49.088;11.886;2023-06-14T21:46:32;95800.47;;;22.65;29.42
27425;BME280;15244;49.088;11.886;2023-06-14T21:51:36;95810.19;;;22.60;29.74
27425;BME280;15244;49.088;11.886;2023-06-14T21:56:41;95816.03;;;22.53;29.90
27425;BME280;15244;49.088;11.886;2023-06-14T22:01:47;95820.69;;;22.47;29.81
27425;BME280;15244;49.088;11.886;2023-06-14T22:06:50;95820.97;;;22.40;29.81
27425;BME280;15244;49.088;11.886;2023-06-14T22:11:59;95824.03;;;22.33;30.15
27425;BME280;15244;49.088;11.886;2023-06-14T22:17:06;95826.00;;;22.23;30.31
27425;BME280;15244;49.088;11.886;2023-06-14T22:22:21;95821.63;;;22.13;30.35
27425;BME280;15244;49.088;11.886;2023-06-14T22:27:33;95828.25;;;22.06;30.61
27425;BME280;15244;49.088;11.886;2023-06-14T22:32:37;95829.75;;;21.98;30.73
27425;BME280;15244;49.088;11.886;2023-06-14T22:37:46;95837.72;;;21.86;30.99
27425;BME280;15244;49.088;11.886;2023-06-14T22:42:49;95817.00;;;21.78;31.19
27425;BME280;15244;49.088;11.886;2023-06-14T22:47:51;95821.59;;;21.72;31.47
27425;BME280;15244;49.088;11.886;2023-06-14T22:52:57;95817.09;;;21.66;31.70
27425;BME280;15244;49.088;11.886;2023-06-14T22:57:58;95822.59;;;21.56;32.03
27425;BME280;15244;49.088;11.886;2023-06-14T23:03:03;95829.63;;;21.48;32.00
27425;BME280;15244;49.088;11.886;2023-06-14T23:08:08;95824.03;;;21.39;32.35
27425;BME280;15244;49.088;11.886;2023-06-14T23:13:14;95822.28;;;21.32;32.32
27425;BME280;15244;49.088;11.886;2023-06-14T23:18:17;95828.97;;;21.22;32.65
27425;BME280;15244;49.088;11.886;2023-06-14T23:23:23;95830.00;;;21.15;32.43
27425;BME280;15244;49.088;11.886;2023-06-14T23:28:24;95819.50;;;21.10;32.92
27425;BME280;15244;49.088;11.886;2023-06-14T23:33:34;95824.06;;;21.04;32.68
27425;BME280;15244;49.088;11.886;2023-06-14T23:38:38;95822.31;;;20.97;32.88
27425;BME280;15244;49.088;11.886;2023-06-14T23:43:49;95823.66;;;20.93;33.36
27425;BME280;15244;49.088;11.886;2023-06-14T23:48:56;95827.44;;;20.86;33.46
27425;BME280;15244;49.088;11.886;2023-06-14T23:54:06;95820.50;;;20.82;33.56
27425;BME280;15244;49.088;11.886;2023-06-14T23:59:14;95814.28;;;20.77;33.57
